Muir Milach — WDH9870 — position and weather

sailwx.info

Track history (hours):
 
Tides and Currents Weather Stations Pressure Air Temp Water Temp Dewpoint Dewpoint Depression Visibility Wind Speed Wind Dir Waves Ship Positions

Muir Milach

Owner: Aleutian Spray Reverse LLC, Seattle, WA. More information available from US FCC via Universal Licensing System and Coast Guard Vessel Documentation Center.

Last reported at 2017-Oct-17 07:03 UTC. Time now 2017-Oct-22 23:02 UTC.
Position N 43°07' W 124°58'.

Length 28 m; draft 19.3 m.

Type: Fishing. MMSI: 367672390.

Date/timePositionNaut miles runAvg speedWind from/ knotsBaromVisibWave heightAir tempDewpointWater temp
2017-Oct-17 07:03N 43°07' W 124°58'0 0.6
2017-Oct-17 06:58N 43°07' W 124°58'41 2.2
2017-Oct-16 12:49N 43°45' W 124°40'43 6.8
2017-Oct-16 06:30N 44°24' W 124°16'4 7.8
2017-Oct-16 05:55N 44°28' W 124°13'3 7.7
2017-Oct-16 05:30N 44°31' W 124°11'  
2017-Oct-10 05:41N 44°11' W 124°60'1 0.9
2017-Oct-10 04:30N 44°10' W 124°59'2 0.9
2017-Oct-10 02:10N 44°12' W 124°59'1 3.5
2017-Oct-10 02:00N 44°13' W 124°59'3 3.4
2017-Oct-10 01:10N 44°15' W 124°57'1 4.4
2017-Oct-10 00:52N 44°17' W 124°56'1 1.7
2017-Oct-10 00:30N 44°16' W 124°56'0 0.6
2017-Oct-09 23:59N 44°16' W 124°56'2 2.2
2017-Oct-09 23:11N 44°15' W 124°57'0 2.7
2017-Oct-09 23:00N 44°14' W 124°57'1 2.7
2017-Oct-09 22:30N 44°13' W 124°58'1 2.7
2017-Oct-09 22:00N 44°12' W 124°59'1 2.7
2017-Oct-09 21:30N 44°11' W 124°59'1 2.8
2017-Oct-09 21:01N 44°09' W 124°59'1 2.8
2017-Oct-09 20:30N 44°08' W 124°59'2 3.1
2017-Oct-09 20:00N 44°06' W 124°59'1 1.3
2017-Oct-09 19:30N 44°07' W 124°59'4 8.3
2017-Oct-09 19:00N 44°03' W 124°58'16 1.1
2017-Oct-09 04:58N 43°49' W 124°46'2 2.8
2017-Oct-09 04:17N 43°49' W 124°48'1 2.8
2017-Oct-09 03:58N 43°49' W 124°49'1 2.8
2017-Oct-09 03:28N 43°49' W 124°51'3 0.1
2017-Oct-07 07:25N 43°50' W 124°47'  
Track history (hours):
 
Tides and Currents Weather Stations Pressure Air Temp Water Temp Dewpoint Dewpoint Depression Visibility Wind Speed Wind Dir Waves Ship Positions

Muir Milach

Owner: Aleutian Spray Reverse LLC, Seattle, WA. More information available from US FCC via Universal Licensing System and Coast Guard Vessel Documentation Center.

Last reported at 2017-Oct-17 07:03 UTC. Time now 2017-Oct-22 23:02 UTC.
Position N 43°07' W 124°58'.

Length 28 m; draft 19.3 m.

Type: Fishing. MMSI: 367672390.

Date/timePositionNaut miles runAvg speedWind from/ knotsBaromVisibWave heightAir tempDewpointWater temp
2017-Oct-17 07:03N 43°07' W 124°58'0 0.6
2017-Oct-17 06:58N 43°07' W 124°58'41 2.2
2017-Oct-16 12:49N 43°45' W 124°40'43 6.8
2017-Oct-16 06:30N 44°24' W 124°16'4 7.8
2017-Oct-16 05:55N 44°28' W 124°13'3 7.7
2017-Oct-16 05:30N 44°31' W 124°11'  
2017-Oct-10 05:41N 44°11' W 124°60'1 0.9
2017-Oct-10 04:30N 44°10' W 124°59'2 0.9
2017-Oct-10 02:10N 44°12' W 124°59'1 3.5
2017-Oct-10 02:00N 44°13' W 124°59'3 3.4
2017-Oct-10 01:10N 44°15' W 124°57'1 4.4
2017-Oct-10 00:52N 44°17' W 124°56'1 1.7
2017-Oct-10 00:30N 44°16' W 124°56'0 0.6
2017-Oct-09 23:59N 44°16' W 124°56'2 2.2
2017-Oct-09 23:11N 44°15' W 124°57'0 2.7
2017-Oct-09 23:00N 44°14' W 124°57'1 2.7
2017-Oct-09 22:30N 44°13' W 124°58'1 2.7
2017-Oct-09 22:00N 44°12' W 124°59'1 2.7
2017-Oct-09 21:30N 44°11' W 124°59'1 2.8
2017-Oct-09 21:01N 44°09' W 124°59'1 2.8
2017-Oct-09 20:30N 44°08' W 124°59'2 3.1
2017-Oct-09 20:00N 44°06' W 124°59'1 1.3
2017-Oct-09 19:30N 44°07' W 124°59'4 8.3
2017-Oct-09 19:00N 44°03' W 124°58'16 1.1
2017-Oct-09 04:58N 43°49' W 124°46'2 2.8
2017-Oct-09 04:17N 43°49' W 124°48'1 2.8
2017-Oct-09 03:58N 43°49' W 124°49'1 2.8
2017-Oct-09 03:28N 43°49' W 124°51'3 0.1
2017-Oct-07 07:25N 43°50' W 124°47'  

Dump ship's entire track history